Time;durP1;ratioP1;P1;durP2;ratioP2;P2;SDS_P1;SDS_P2;PMS_P1;PMS_P2;Temp;Humidity;BMP_temperature;BMP_pressure;BME280_temperature;BME280_humidity;BME280_pressure;Samples;Min_cycle;Max_cycle;Signal;HPM_P1;HPM_P2
2023/08/03 00:00:18;;;;;;;11.02;3.60;;;16.10;99.90;;;;;;5058833;28;20055;-75
2023/08/03 00:02:45;;;;;;;12.27;4.90;;;16.10;99.90;;;;;;5043962;28;20101;-76
2023/08/03 00:05:13;;;;;;;6.35;3.17;;;16.10;99.90;;;;;;5053870;28;20114;-76
2023/08/03 00:07:39;;;;;;;6.00;2.45;;;16.10;99.90;;;;;;5056328;28;20470;-75
2023/08/03 00:10:04;;;;;;;8.45;3.88;;;16.10;99.90;;;;;;5060870;28;20183;-76
2023/08/03 00:12:30;;;;;;;6.80;3.33;;;16.10;99.90;;;;;;5034890;28;20047;-76
2023/08/03 00:14:56;;;;;;;8.52;3.90;;;16.10;99.90;;;;;;5058503;28;20054;-75
2023/08/03 00:17:22;;;;;;;7.38;3.67;;;16.10;99.90;;;;;;5044027;28;20116;-76
2023/08/03 00:19:48;;;;;;;9.35;3.05;;;16.10;99.90;;;;;;5027175;28;20138;-75
2023/08/03 00:22:13;;;;;;;9.88;3.90;;;16.10;99.90;;;;;;5044655;28;20393;-75
2023/08/03 00:24:39;;;;;;;7.00;2.67;;;16.10;99.90;;;;;;5034661;28;20048;-76
2023/08/03 00:27:05;;;;;;;4.93;2.40;;;16.10;99.90;;;;;;5056824;28;20456;-77
2023/08/03 00:29:31;;;;;;;5.32;2.70;;;16.10;99.90;;;;;;5031103;28;20119;-76
2023/08/03 00:31:59;;;;;;;6.10;2.80;;;16.20;99.90;;;;;;5040254;28;20174;-76
2023/08/03 00:34:31;;;;;;;7.65;3.88;;;16.10;99.90;;;;;;5048637;28;20123;-76
2023/08/03 00:36:57;;;;;;;6.55;2.33;;;16.10;99.90;;;;;;5056502;28;20070;-76
2023/08/03 00:39:23;;;;;;;8.18;3.20;;;16.10;99.90;;;;;;5060075;28;20032;-75
2023/08/03 00:41:49;;;;;;;4.53;2.67;;;16.10;99.90;;;;;;5052374;28;20051;-76
2023/08/03 00:44:15;;;;;;;11.80;4.50;;;16.10;99.90;;;;;;5057252;28;20048;-75
2023/08/03 00:46:41;;;;;;;4.30;2.17;;;16.10;99.90;;;;;;5044089;28;20037;-76
2023/08/03 00:49:07;;;;;;;5.20;2.13;;;16.10;99.90;;;;;;5049417;28;20045;-77
2023/08/03 00:51:33;;;;;;;4.07;1.55;;;16.10;99.90;;;;;;5041566;28;20053;-77
2023/08/03 00:53:59;;;;;;;7.47;2.70;;;16.10;99.90;;;;;;5032443;28;20435;-76
2023/08/03 00:56:25;;;;;;;6.00;2.00;;;16.10;99.90;;;;;;5062384;28;20079;-76
2023/08/03 00:58:51;;;;;;;6.10;2.13;;;16.10;99.90;;;;;;5061096;28;20119;-76
2023/08/03 01:01:17;;;;;;;5.13;2.10;;;16.10;99.90;;;;;;5050687;28;20036;-77
2023/08/03 01:03:42;;;;;;;7.43;3.10;;;16.10;99.90;;;;;;5036792;28;20483;-76
2023/08/03 01:06:08;;;;;;;4.53;1.98;;;16.10;99.90;;;;;;5043618;28;20119;-75
2023/08/03 01:08:34;;;;;;;5.05;1.83;;;16.10;99.90;;;;;;5059293;28;20097;-75
2023/08/03 01:10:59;;;;;;;3.40;1.60;;;16.10;99.90;;;;;;5053179;28;20077;-75
2023/08/03 01:13:25;;;;;;;3.75;1.80;;;16.10;99.90;;;;;;5043621;28;20040;-75
2023/08/03 01:15:51;;;;;;;3.45;1.83;;;16.10;99.90;;;;;;5062279;28;20041;-75
2023/08/03 01:18:17;;;;;;;4.22;2.50;;;16.10;99.90;;;;;;5038047;28;20082;-75
2023/08/03 01:20:44;;;;;;;5.32;2.47;;;16.10;99.90;;;;;;5038178;28;20111;-75
2023/08/03 01:23:10;;;;;;;5.55;1.98;;;16.10;99.90;;;;;;5050133;28;20057;-75
2023/08/03 01:25:36;;;;;;;3.35;1.80;;;16.10;99.90;;;;;;5060781;28;20080;-75
2023/08/03 01:28:04;;;;;;;6.78;3.20;;;16.10;99.90;;;;;;5059478;28;20036;-75
2023/08/03 01:30:30;;;;;;;4.15;1.92;;;16.10;99.90;;;;;;5060850;28;20430;-75
2023/08/03 01:32:57;;;;;;;3.65;1.90;;;16.20;99.90;;;;;;5055643;28;20109;-75
2023/08/03 01:35:22;;;;;;;3.47;1.98;;;16.20;99.90;;;;;;5035088;28;20052;-75
2023/08/03 01:37:50;;;;;;;3.92;2.15;;;16.10;99.90;;;;;;5052168;28;20063;-75
2023/08/03 01:40:17;;;;;;;4.65;2.05;;;16.20;99.90;;;;;;5048467;28;20060;-75
2023/08/03 01:42:43;;;;;;;4.38;2.05;;;16.10;99.90;;;;;;5036374;28;20416;-75
2023/08/03 01:45:09;;;;;;;4.22;2.45;;;16.10;99.90;;;;;;5046353;28;20465;-75
2023/08/03 01:47:35;;;;;;;4.20;2.33;;;16.20;99.90;;;;;;5048123;28;20052;-75
2023/08/03 01:50:01;;;;;;;5.30;2.63;;;16.20;99.90;;;;;;5057525;28;20045;-75
2023/08/03 01:52:27;;;;;;;4.60;2.67;;;16.10;99.90;;;;;;5062225;28;20530;-75
2023/08/03 01:54:53;;;;;;;4.25;2.80;;;16.10;99.90;;;;;;5045535;28;20139;-75
2023/08/03 01:57:18;;;;;;;5.05;2.20;;;16.20;99.90;;;;;;5045213;28;20127;-75
2023/08/03 01:59:44;;;;;;;3.80;2.63;;;16.10;99.90;;;;;;5038620;28;20127;-75
2023/08/03 02:02:11;;;;;;;5.22;2.60;;;16.20;99.90;;;;;;5053426;28;20537;-76
2023/08/03 02:04:37;;;;;;;4.50;2.70;;;16.20;99.90;;;;;;5034603;28;20118;-75
2023/08/03 02:07:17;;;;;;;9.02;3.92;;;16.10;99.90;;;;;;5041700;28;20479;-75
2023/08/03 02:09:43;;;;;;;;;;;16.10;99.90;;;;;;5061084;28;20099;-75
2023/08/03 02:12:09;;;;;;;7.32;3.78;;;16.20;99.90;;;;;;5050310;28;20264;-75
2023/08/03 02:14:38;;;;;;;5.75;3.00;;;16.20;99.90;;;;;;5039705;28;20037;-75
2023/08/03 02:17:04;;;;;;;3.53;2.70;;;16.10;99.90;;;;;;5059396;28;20051;-75
2023/08/03 02:19:29;;;;;;;3.10;2.40;;;16.20;99.90;;;;;;5058153;28;20033;-75
2023/08/03 02:21:55;;;;;;;4.45;2.65;;;16.20;99.90;;;;;;5048644;28;20062;-75
2023/08/03 02:24:21;;;;;;;4.05;2.78;;;16.20;99.90;;;;;;5052831;28;20040;-75
2023/08/03 02:26:46;;;;;;;6.40;3.65;;;16.20;99.90;;;;;;5065078;28;20051;-75
2023/08/03 02:29:12;;;;;;;5.20;2.95;;;16.20;99.90;;;;;;5062786;28;20395;-75
2023/08/03 02:31:38;;;;;;;13.40;5.57;;;16.20;99.90;;;;;;5056297;28;20037;-76
2023/08/03 02:34:04;;;;;;;5.25;3.40;;;16.20;99.90;;;;;;5056993;28;20380;-76
2023/08/03 02:36:32;;;;;;;4.68;3.47;;;16.20;99.90;;;;;;5048515;28;20495;-76
2023/08/03 02:38:58;;;;;;;5.97;3.97;;;16.20;99.90;;;;;;5053647;28;20056;-75
2023/08/03 02:41:24;;;;;;;7.70;3.67;;;16.20;99.90;;;;;;5056136;28;20537;-76
2023/08/03 02:43:49;;;;;;;7.40;4.10;;;16.20;99.90;;;;;;5039046;28;20048;-77
2023/08/03 02:46:15;;;;;;;6.47;4.55;;;16.20;99.90;;;;;;5053552;28;20495;-77
2023/08/03 02:48:41;;;;;;;6.18;5.00;;;16.20;99.90;;;;;;5045843;28;20127;-77
2023/08/03 02:51:06;;;;;;;4.95;4.00;;;16.20;99.90;;;;;;5056340;28;20550;-75
2023/08/03 02:53:32;;;;;;;8.30;5.97;;;16.20;99.90;;;;;;5062164;28;20094;-76
2023/08/03 02:55:58;;;;;;;7.35;5.45;;;16.20;99.90;;;;;;5033313;28;20410;-76
2023/08/03 02:58:24;;;;;;;11.10;6.32;;;16.20;99.90;;;;;;5059319;28;20048;-76
2023/08/03 03:00:49;;;;;;;7.72;6.35;;;16.20;99.90;;;;;;5055489;28;20044;-76
2023/08/03 03:03:15;;;;;;;8.18;6.43;;;16.20;99.90;;;;;;5058622;28;20062;-76
2023/08/03 03:05:41;;;;;;;7.70;6.93;;;16.20;99.90;;;;;;5061892;28;20048;-76
2023/08/03 03:08:07;;;;;;;10.27;7.65;;;16.20;99.90;;;;;;5064255;28;20044;-76
2023/08/03 03:10:35;;;;;;;8.23;7.40;;;16.30;99.90;;;;;;5049021;28;20095;-76
2023/08/03 03:13:01;;;;;;;9.70;7.75;;;16.30;99.90;;;;;;5034026;28;20415;-76
2023/08/03 03:15:29;;;;;;;9.65;7.85;;;16.30;99.90;;;;;;5062278;28;20044;-76
2023/08/03 03:17:55;;;;;;;14.80;9.35;;;16.30;99.90;;;;;;5055213;28;20132;-76
2023/08/03 03:20:21;;;;;;;11.63;8.60;;;16.30;99.90;;;;;;5043674;28;20480;-77
2023/08/03 03:22:46;;;;;;;9.95;7.97;;;16.30;99.90;;;;;;5062140;28;20048;-76
2023/08/03 03:25:12;;;;;;;15.82;9.88;;;16.30;99.90;;;;;;5056998;28;20359;-76
2023/08/03 03:27:38;;;;;;;11.15;8.25;;;16.30;99.90;;;;;;5037543;28;20080;-76
2023/08/03 03:30:04;;;;;;;31.67;13.90;;;16.30;99.90;;;;;;5063183;28;20087;-76
2023/08/03 03:32:30;;;;;;;18.33;10.75;;;16.40;99.90;;;;;;5049082;28;20411;-76
2023/08/03 03:34:55;;;;;;;19.95;9.90;;;16.40;99.90;;;;;;5022275;28;20132;-76
2023/08/03 03:37:21;;;;;;;23.42;12.05;;;16.40;99.90;;;;;;5026988;28;20439;-76
2023/08/03 03:39:47;;;;;;;14.82;8.93;;;16.40;99.90;;;;;;5006418;28;20474;-76
2023/08/03 03:42:13;;;;;;;28.45;12.65;;;16.40;99.90;;;;;;5022511;28;20199;-76
2023/08/03 03:44:39;;;;;;;13.38;8.52;;;16.40;99.90;;;;;;5020256;28;20089;-76
2023/08/03 03:47:05;;;;;;;26.73;12.40;;;16.40;99.90;;;;;;5023592;28;20045;-76
2023/08/03 03:49:31;;;;;;;12.45;9.40;;;16.40;99.90;;;;;;5008728;28;20171;-76
2023/08/03 03:51:56;;;;;;;11.65;7.60;;;16.40;99.90;;;;;;5024957;28;20113;-76
2023/08/03 03:54:22;;;;;;;14.50;9.50;;;16.40;99.90;;;;;;5024964;28;20485;-76
2023/08/03 03:56:48;;;;;;;31.92;13.02;;;16.30;99.90;;;;;;5019082;28;20398;-76
2023/08/03 03:59:14;;;;;;;11.88;7.35;;;16.30;99.90;;;;;;5025337;28;20176;-76
2023/08/03 04:01:40;;;;;;;15.48;7.97;;;16.30;99.90;;;;;;5023742;28;20048;-76
2023/08/03 04:04:05;;;;;;;20.08;9.20;;;16.20;99.90;;;;;;5022646;28;20063;-76
2023/08/03 04:06:34;;;;;;;18.00;8.80;;;16.20;99.90;;;;;;5052775;28;20392;-76
2023/08/03 04:09:00;;;;;;;17.33;8.43;;;16.20;99.90;;;;;;5035252;28;20041;-76
2023/08/03 04:11:25;;;;;;;15.90;8.18;;;16.10;99.90;;;;;;5055009;28;20067;-76
2023/08/03 04:13:51;;;;;;;18.77;8.82;;;16.10;99.90;;;;;;5041802;28;20048;-76
2023/08/03 04:16:17;;;;;;;14.73;7.72;;;16.10;99.90;;;;;;5045486;28;20068;-76
2023/08/03 04:18:43;;;;;;;26.15;10.10;;;16.10;99.90;;;;;;5047189;28;20121;-76
2023/08/03 04:21:09;;;;;;;15.65;7.72;;;16.10;99.90;;;;;;5061520;28;20113;-75
2023/08/03 04:23:35;;;;;;;16.27;7.97;;;16.20;99.90;;;;;;5042404;28;20037;-75
2023/08/03 04:26:01;;;;;;;19.42;7.38;;;16.20;99.90;;;;;;5061283;28;20041;-75
2023/08/03 04:28:26;;;;;;;17.38;7.90;;;16.10;99.90;;;;;;5059323;28;20062;-75
2023/08/03 04:30:52;;;;;;;16.08;6.80;;;16.20;99.90;;;;;;5055677;28;20257;-75
2023/08/03 04:33:18;;;;;;;14.13;6.65;;;16.20;99.90;;;;;;5039883;28;20048;-75
2023/08/03 04:35:44;;;;;;;20.02;7.30;;;16.20;99.90;;;;;;5055389;28;20076;-75
2023/08/03 04:38:09;;;;;;;23.98;7.22;;;16.20;99.90;;;;;;5061950;28;20162;-76
2023/08/03 04:40:36;;;;;;;13.85;5.22;;;16.20;99.90;;;;;;5062591;28;20052;-75
2023/08/03 04:43:02;;;;;;;18.65;5.55;;;16.20;99.90;;;;;;5040211;28;20329;-75
2023/08/03 04:45:28;;;;;;;15.98;4.63;;;16.20;99.90;;;;;;5036154;28;20052;-75
2023/08/03 04:47:54;;;;;;;16.30;5.20;;;16.20;99.90;;;;;;5047227;28;20041;-75
2023/08/03 04:50:21;;;;;;;15.50;4.82;;;16.20;99.90;;;;;;5043495;28;20092;-75
2023/08/03 04:52:47;;;;;;;17.80;4.60;;;16.20;99.90;;;;;;5034199;28;20053;-75
2023/08/03 04:55:12;;;;;;;21.33;5.60;;;16.20;99.90;;;;;;5052448;28;20049;-75
2023/08/03 04:57:38;;;;;;;17.10;4.88;;;16.20;99.90;;;;;;5043514;28;20132;-75
2023/08/03 05:00:05;;;;;;;16.73;4.75;;;16.20;99.90;;;;;;5058740;28;20075;-75
2023/08/03 05:02:33;;;;;;;17.13;4.25;;;16.20;99.90;;;;;;5048368;28;20085;-75
2023/08/03 05:04:59;;;;;;;15.10;4.10;;;16.20;99.90;;;;;;5069002;28;20049;-75
2023/08/03 05:07:24;;;;;;;14.95;4.95;;;16.30;99.90;;;;;;5059896;28;20506;-75
2023/08/03 05:09:50;;;;;;;14.95;5.07;;;16.30;99.90;;;;;;5047992;28;20051;-75
2023/08/03 05:12:16;;;;;;;16.55;5.05;;;16.30;99.90;;;;;;5042513;28;20056;-75
2023/08/03 05:14:42;;;;;;;14.50;4.60;;;16.40;99.90;;;;;;5066907;28;20100;-76
2023/08/03 05:17:10;;;;;;;16.23;4.97;;;16.40;99.90;;;;;;5062833;28;20048;-75
2023/08/03 05:19:36;;;;;;;15.63;4.90;;;16.40;99.90;;;;;;5060203;28;20036;-75
2023/08/03 05:22:02;;;;;;;13.40;4.85;;;16.40;99.90;;;;;;5060014;28;20048;-75
2023/08/03 05:24:28;;;;;;;15.45;5.47;;;16.40;99.90;;;;;;5058451;28;20067;-76
2023/08/03 05:26:54;;;;;;;19.35;5.60;;;16.50;99.90;;;;;;5061055;28;20048;-76
2023/08/03 05:29:19;;;;;;;14.95;6.07;;;16.50;99.90;;;;;;5058590;28;20118;-76
2023/08/03 05:31:49;;;;;;;13.30;5.82;;;16.50;99.90;;;;;;5063310;28;20094;-75
2023/08/03 05:34:18;;;;;;;14.85;5.65;;;16.50;99.90;;;;;;5051682;28;20066;-75
2023/08/03 05:36:43;;;;;;;19.40;6.50;;;16.60;99.90;;;;;;5066222;28;20043;-75
2023/08/03 05:39:10;;;;;;;20.60;7.85;;;16.60;99.90;;;;;;5058862;28;20621;-75
2023/08/03 05:41:36;;;;;;;13.48;6.15;;;16.70;99.90;;;;;;5065932;28;20048;-75
2023/08/03 05:44:02;;;;;;;15.75;6.63;;;16.70;99.90;;;;;;5053559;28;20044;-75
2023/08/03 05:46:32;;;;;;;15.57;6.18;;;16.80;99.90;;;;;;5062623;28;20131;-75
2023/08/03 05:48:58;;;;;;;18.50;7.72;;;16.80;99.90;;;;;;5064022;28;20265;-76
2023/08/03 05:51:25;;;;;;;12.40;6.38;;;16.80;99.90;;;;;;5064800;28;20394;-77
2023/08/03 05:53:52;;;;;;;19.23;8.05;;;16.80;99.90;;;;;;5063923;28;20384;-77
2023/08/03 05:56:20;;;;;;;13.82;6.97;;;16.80;99.90;;;;;;5059394;28;20123;-77
2023/08/03 05:58:46;;;;;;;20.58;7.65;;;16.80;99.90;;;;;;5064267;28;20453;-77
2023/08/03 06:01:12;;;;;;;12.40;5.15;;;16.80;99.90;;;;;;5053799;28;20132;-76
2023/08/03 06:03:43;;;;;;;16.17;6.32;;;16.80;99.90;;;;;;5043796;28;20044;-76
2023/08/03 06:06:10;;;;;;;11.65;5.38;;;16.90;99.90;;;;;;5063806;28;20102;-76
2023/08/03 06:08:36;;;;;;;16.95;7.13;;;17.00;99.90;;;;;;5062149;28;20048;-77
2023/08/03 06:11:04;;;;;;;14.48;5.80;;;17.00;99.90;;;;;;5067786;28;20113;-77
2023/08/03 06:13:34;;;;;;;13.60;5.95;;;17.10;99.90;;;;;;5063799;28;20044;-77
2023/08/03 06:16:09;;;;;;;14.18;5.22;;;17.10;99.90;;;;;;5067935;28;20056;-77
2023/08/03 06:18:49;;;;;;;14.00;6.50;;;17.10;99.90;;;;;;5058853;28;20039;-77
2023/08/03 06:21:17;;;;;;;13.55;6.20;;;17.10;99.90;;;;;;5053603;28;20507;-76
2023/08/03 06:23:53;;;;;;;13.55;5.55;;;17.10;99.90;;;;;;5047878;28;20037;-77
2023/08/03 06:26:20;;;;;;;13.25;5.15;;;17.20;99.90;;;;;;5068858;28;20056;-77
2023/08/03 06:28:49;;;;;;;12.18;5.25;;;17.20;99.90;;;;;;5059205;28;20061;-77
2023/08/03 06:31:21;;;;;;;14.80;7.00;;;17.30;99.90;;;;;;5051504;28;20040;-77
2023/08/03 06:33:47;;;;;;;13.73;6.60;;;17.30;99.90;;;;;;5070648;28;20054;-76
2023/08/03 06:36:19;;;;;;;21.52;8.63;;;17.30;99.90;;;;;;5051481;28;20060;-78
2023/08/03 06:38:45;;;;;;;10.55;4.57;;;17.30;99.90;;;;;;5059677;28;20052;-77
2023/08/03 06:41:11;;;;;;;13.55;6.70;;;17.30;99.90;;;;;;5074439;28;20055;-77
2023/08/03 06:43:38;;;;;;;12.52;6.28;;;17.40;99.90;;;;;;5067424;28;20667;-77
2023/08/03 06:46:05;;;;;;;9.52;5.18;;;17.40;99.90;;;;;;5063721;28;20490;-77
2023/08/03 06:48:32;;;;;;;15.20;7.53;;;17.40;99.90;;;;;;5066016;28;20048;-77
2023/08/03 06:50:58;;;;;;;9.38;4.15;;;17.40;99.90;;;;;;5066297;28;20049;-77
2023/08/03 06:53:24;;;;;;;15.73;7.50;;;17.40;99.90;;;;;;5045175;28;20045;-77
2023/08/03 06:55:50;;;;;;;12.13;6.03;;;17.40;99.90;;;;;;5042615;28;20040;-77
2023/08/03 06:58:17;;;;;;;10.18;4.70;;;17.40;99.90;;;;;;5069277;28;20068;-77
2023/08/03 07:00:44;;;;;;;8.13;5.10;;;17.40;99.90;;;;;;5042580;28;20044;-76
2023/08/03 07:03:10;;;;;;;13.15;6.85;;;17.60;99.90;;;;;;5046171;28;20059;-76
2023/08/03 07:05:39;;;;;;;12.73;8.10;;;17.70;99.90;;;;;;5042871;28;21314;-76
2023/08/03 07:08:08;;;;;;;14.85;7.82;;;17.80;99.90;;;;;;5059379;28;20039;-76
2023/08/03 07:10:35;;;;;;;17.77;8.40;;;17.80;99.90;;;;;;5070026;28;20052;-76
2023/08/03 07:13:02;;;;;;;10.45;6.57;;;17.90;99.90;;;;;;5071011;28;20278;-77
2023/08/03 07:15:33;;;;;;;11.73;6.03;;;17.90;99.90;;;;;;5057079;28;20357;-77
2023/08/03 07:18:06;;;;;;;8.40;5.47;;;18.00;99.90;;;;;;5087869;28;20123;-77
2023/08/03 07:20:33;;;;;;;8.32;4.82;;;18.00;99.90;;;;;;5047352;28;20044;-77
2023/08/03 07:22:59;;;;;;;7.97;4.80;;;18.00;99.90;;;;;;5067321;28;20040;-77
2023/08/03 07:25:25;;;;;;;8.90;4.45;;;18.00;99.90;;;;;;5057766;28;20059;-77
2023/08/03 07:27:52;;;;;;;7.90;3.78;;;18.10;99.90;;;;;;5065461;28;20039;-76
2023/08/03 07:30:18;;;;;;;6.90;2.60;;;18.20;99.90;;;;;;5054183;28;20140;-77
2023/08/03 07:32:44;;;;;;;9.27;3.80;;;18.30;99.90;;;;;;5060894;28;20048;-77
2023/08/03 07:35:10;;;;;;;5.88;3.10;;;18.40;99.90;;;;;;5052082;28;20110;-77
2023/08/03 07:37:35;;;;;;;7.53;2.90;;;18.40;99.90;;;;;;5044586;28;20048;-78
2023/08/03 07:40:02;;;;;;;5.68;3.60;;;18.50;99.90;;;;;;5043582;28;20492;-77
2023/08/03 07:42:28;;;;;;;8.50;3.67;;;18.50;99.90;;;;;;5061067;28;20244;-77
2023/08/03 07:44:54;;;;;;;5.63;2.47;;;18.50;99.90;;;;;;5060181;28;20037;-77
2023/08/03 07:47:21;;;;;;;7.32;3.20;;;18.50;99.90;;;;;;5063399;28;20550;-77
2023/08/03 07:49:47;;;;;;;5.25;1.98;;;18.50;99.90;;;;;;5050164;28;20045;-78
2023/08/03 07:52:15;;;;;;;4.43;1.90;;;18.50;99.90;;;;;;5063066;28;20672;-77
2023/08/03 07:54:42;;;;;;;4.60;2.85;;;18.60;99.90;;;;;;5047540;28;20519;-77
2023/08/03 07:57:11;;;;;;;4.95;1.95;;;18.70;99.90;;;;;;5063181;28;20347;-77
2023/08/03 07:59:37;;;;;;;6.78;2.30;;;18.70;99.90;;;;;;5041112;28;20498;-77
2023/08/03 08:02:06;;;;;;;3.92;1.55;;;18.60;99.90;;;;;;5047185;28;20386;-77
2023/08/03 08:04:31;;;;;;;5.18;2.33;;;18.60;99.90;;;;;;5060492;28;20520;-77
2023/08/03 08:06:57;;;;;;;3.95;1.80;;;18.70;99.90;;;;;;5064009;28;20315;-77
2023/08/03 08:09:23;;;;;;;4.72;2.03;;;18.80;99.90;;;;;;5058760;28;20078;-77
2023/08/03 08:11:48;;;;;;;5.07;2.38;;;18.90;99.90;;;;;;5052973;28;20059;-77
2023/08/03 08:14:14;;;;;;;6.00;1.70;;;19.00;99.90;;;;;;5060156;28;20094;-77
2023/08/03 08:16:40;;;;;;;5.47;2.33;;;19.00;99.90;;;;;;5063790;28;20104;-77
2023/08/03 08:19:06;;;;;;;6.35;2.20;;;19.10;99.90;;;;;;5050664;28;20044;-76
2023/08/03 08:21:31;;;;;;;3.85;1.48;;;19.20;99.90;;;;;;5060339;28;20135;-76
2023/08/03 08:23:57;;;;;;;4.28;1.92;;;19.20;99.90;;;;;;5046612;28;20056;-77
2023/08/03 08:26:25;;;;;;;4.55;1.60;;;19.30;99.90;;;;;;5071603;28;20495;-77
2023/08/03 08:28:56;;;;;;;4.38;1.33;;;19.50;99.90;;;;;;5059993;28;20052;-76
2023/08/03 08:31:23;;;;;;;4.32;1.50;;;19.70;99.90;;;;;;5042293;28;20079;-76
2023/08/03 08:33:49;;;;;;;3.80;1.20;;;19.90;99.90;;;;;;5040691;28;20032;-77
2023/08/03 08:36:15;;;;;;;5.32;1.10;;;19.90;99.90;;;;;;5043322;28;20055;-77
2023/08/03 08:38:40;;;;;;;4.70;1.13;;;20.00;99.90;;;;;;5046960;28;20067;-77
2023/08/03 08:41:06;;;;;;;4.32;1.35;;;20.00;99.90;;;;;;5055662;28;20063;-76
2023/08/03 08:43:32;;;;;;;3.22;1.33;;;20.00;99.90;;;;;;5070445;28;20428;-76
2023/08/03 08:45:58;;;;;;;6.20;1.40;;;19.90;99.90;;;;;;5066138;28;20047;-76
2023/08/03 08:48:24;;;;;;;3.85;1.40;;;19.80;99.90;;;;;;5060115;28;20094;-76
2023/08/03 08:50:50;;;;;;;3.72;1.42;;;19.80;99.90;;;;;;5057308;28;20423;-76
2023/08/03 08:53:16;;;;;;;4.30;1.38;;;19.80;99.90;;;;;;5048318;28;20081;-76
2023/08/03 08:55:42;;;;;;;6.70;1.80;;;19.90;99.90;;;;;;5048727;28;20526;-75
2023/08/03 08:58:08;;;;;;;4.38;1.17;;;19.90;99.90;;;;;;5050275;28;20119;-75
2023/08/03 09:00:45;;;;;;;4.78;1.20;;;20.00;99.90;;;;;;5063991;28;20135;-75
2023/08/03 09:03:11;;;;;;;2.25;0.82;;;20.10;99.90;;;;;;5049393;28;20053;-75
2023/08/03 09:05:39;;;;;;;3.25;1.05;;;20.10;99.90;;;;;;5073428;28;20075;-76
2023/08/03 09:08:18;;;;;;;3.60;1.38;;;20.20;99.90;;;;;;5046997;28;20040;-75
2023/08/03 09:10:52;;;;;;;5.30;1.20;;;20.40;99.90;;;;;;5061850;28;20052;-76
2023/08/03 09:13:34;;;;;;;5.03;1.63;;;20.40;99.90;;;;;;5047721;28;20044;-75
2023/08/03 09:16:00;;;;;;;5.03;1.10;;;20.20;99.90;;;;;;5049977;28;20040;-75
2023/08/03 09:18:29;;;;;;;3.40;1.10;;;20.10;99.90;;;;;;5047892;28;20494;-75
2023/08/03 09:21:11;;;;;;;6.82;1.55;;;20.20;99.90;;;;;;5064523;28;20036;-76
2023/08/03 09:23:37;;;;;;;2.55;1.00;;;20.30;99.90;;;;;;5075095;28;20508;-75
2023/08/03 09:26:04;;;;;;;3.30;1.00;;;20.40;99.90;;;;;;5068028;28;20123;-75
2023/08/03 09:28:38;;;;;;;4.97;1.20;;;20.30;99.90;;;;;;5070341;28;20071;-75
2023/08/03 09:31:04;;;;;;;3.50;1.30;;;20.40;99.90;;;;;;5068455;28;20041;-75
2023/08/03 09:33:32;;;;;;;3.25;1.02;;;20.60;99.90;;;;;;5061897;28;20044;-75
2023/08/03 09:36:13;;;;;;;4.40;1.20;;;20.70;99.90;;;;;;5066890;28;20638;-74
2023/08/03 09:38:40;;;;;;;5.32;1.38;;;20.60;99.90;;;;;;5059384;28;20582;-75
2023/08/03 09:41:08;;;;;;;3.70;1.17;;;20.40;99.90;;;;;;5064766;28;20591;-75
2023/08/03 09:43:34;;;;;;;4.03;1.02;;;20.30;99.90;;;;;;5066635;28;20036;-75
2023/08/03 09:46:01;;;;;;;4.63;1.33;;;20.20;99.90;;;;;;5057080;28;20633;-75
2023/08/03 09:48:27;;;;;;;3.33;1.17;;;20.30;99.90;;;;;;5041140;28;20052;-75
2023/08/03 09:50:55;;;;;;;6.63;1.40;;;20.50;99.90;;;;;;5060582;28;20368;-75
2023/08/03 09:53:25;;;;;;;6.55;1.02;;;20.80;99.90;;;;;;5059996;28;20128;-75
2023/08/03 09:55:58;;;;;;;5.30;1.38;;;21.10;99.90;;;;;;5064616;28;20039;-75
2023/08/03 09:58:30;;;;;;;3.83;1.20;;;21.40;99.90;;;;;;5064781;28;20037;-74
2023/08/03 10:00:59;;;;;;;5.22;1.40;;;21.60;99.90;;;;;;5069036;28;20080;-74
2023/08/03 10:03:27;;;;;;;3.97;0.80;;;21.80;99.90;;;;;;5043990;28;20064;-74
2023/08/03 10:06:13;;;;;;;4.00;1.27;;;21.80;99.90;;;;;;5042814;28;20071;-74
2023/08/03 10:08:52;;;;;;;4.32;0.85;;;21.50;99.90;;;;;;5050202;28;20058;-75
2023/08/03 10:11:20;;;;;;;5.68;1.55;;;21.40;99.90;;;;;;5058206;28;20395;-74
2023/08/03 10:13:47;;;;;;;4.95;1.30;;;21.40;99.90;;;;;;5063542;28;20110;-74
2023/08/03 10:16:17;;;;;;;5.60;1.02;;;21.50;99.90;;;;;;5066064;28;20048;-74
2023/08/03 10:18:45;;;;;;;6.13;0.90;;;21.70;99.90;;;;;;5048416;28;20060;-74
2023/08/03 10:21:11;;;;;;;5.82;1.48;;;21.70;99.90;;;;;;5062616;28;20040;-75
2023/08/03 10:23:39;;;;;;;5.30;1.27;;;21.70;99.90;;;;;;5052995;28;20797;-75
2023/08/03 10:26:09;;;;;;;4.97;1.48;;;21.50;99.90;;;;;;5062022;28;20043;-74
2023/08/03 10:28:40;;;;;;;3.80;1.60;;;21.30;99.90;;;;;;5059151;28;20041;-74
2023/08/03 10:31:18;;;;;;;8.45;1.67;;;21.20;99.90;;;;;;5066071;28;20044;-74
2023/08/03 10:34:04;;;;;;;4.35;1.35;;;21.20;99.90;;;;;;5059444;28;20120;-74
2023/08/03 10:36:43;;;;;;;4.95;1.25;;;21.50;99.90;;;;;;5042043;28;20060;-74
2023/08/03 10:39:22;;;;;;;5.97;1.48;;;21.60;99.90;;;;;;5043900;28;20063;-74
2023/08/03 10:41:51;;;;;;;6.85;1.17;;;21.80;99.90;;;;;;5046842;28;20044;-74
2023/08/03 10:44:20;;;;;;;7.07;1.92;;;22.10;99.90;;;;;;5060110;28;20408;-75
2023/08/03 10:46:51;;;;;;;7.07;1.30;;;22.30;99.90;;;;;;5047156;28;20048;-75
2023/08/03 10:49:20;;;;;;;5.80;1.50;;;22.40;99.90;;;;;;5048078;28;20044;-75
2023/08/03 10:51:49;;;;;;;4.57;1.27;;;22.60;99.90;;;;;;5066903;28;20309;-75
2023/08/03 10:54:17;;;;;;;6.40;1.45;;;22.80;99.90;;;;;;5058082;28;20053;-75
2023/08/03 10:57:04;;;;;;;4.32;1.00;;;23.00;99.90;;;;;;5047720;28;20041;-75
2023/08/03 10:59:54;;;;;;;4.65;1.45;;;23.10;99.90;;;;;;5042873;28;20553;-75
2023/08/03 11:02:26;;;;;;;3.83;1.38;;;23.10;99.90;;;;;;5042225;28;20053;-75
2023/08/03 11:04:53;;;;;;;4.40;1.00;;;23.30;99.90;;;;;;5045985;28;20438;-75
2023/08/03 11:07:32;;;;;;;5.55;0.95;;;23.40;99.90;;;;;;5061509;28;20489;-75
2023/08/03 11:09:59;;;;;;;6.78;1.02;;;23.50;99.90;;;;;;5067273;28;20045;-75
2023/08/03 11:12:27;;;;;;;3.67;0.90;;;23.60;99.90;;;;;;5067049;28;20080;-75
2023/08/03 11:14:54;;;;;;;7.53;1.13;;;23.70;99.90;;;;;;5065089;28;20157;-75
2023/08/03 11:17:23;;;;;;;5.25;1.70;;;23.80;99.90;;;;;;5058402;28;20032;-75
2023/08/03 11:19:49;;;;;;;5.50;1.15;;;24.00;99.90;;;;;;5050560;28;20063;-75
2023/08/03 11:22:15;;;;;;;4.65;0.90;;;24.10;99.90;;;;;;5047436;28;20161;-75
2023/08/03 11:24:42;;;;;;;3.55;1.10;;;24.30;99.90;;;;;;5061229;28;20487;-75
2023/08/03 11:27:10;;;;;;;4.43;1.10;;;24.30;99.90;;;;;;5057925;28;20097;-75
2023/08/03 11:29:36;;;;;;;3.67;1.10;;;24.10;99.90;;;;;;5065621;28;20048;-75
2023/08/03 11:32:05;;;;;;;6.30;1.17;;;23.80;99.90;;;;;;5056191;28;20032;-75
2023/08/03 11:34:31;;;;;;;2.92;0.93;;;23.70;99.90;;;;;;5042595;28;20109;-75
2023/08/03 11:36:56;;;;;;;3.25;1.05;;;23.60;99.90;;;;;;5056274;28;20067;-75
2023/08/03 11:39:22;;;;;;;4.80;1.30;;;23.70;99.90;;;;;;5059488;28;20115;-75
2023/08/03 11:41:51;;;;;;;3.30;0.95;;;23.70;99.90;;;;;;5043242;28;20036;-75
2023/08/03 11:44:26;;;;;;;4.22;0.95;;;23.80;99.90;;;;;;5135850;27;20324;-75
2023/08/03 11:47:05;;;;;;;2.95;0.73;;;23.90;99.90;;;;;;5135142;27;20409;-76
2023/08/03 11:49:31;;;;;;;3.78;0.70;;;24.00;99.90;;;;;;5100450;27;20051;-76
2023/08/03 11:52:00;;;;;;;4.28;0.90;;;24.10;99.90;;;;;;5083157;28;20464;-75
2023/08/03 11:54:29;;;;;;;3.15;0.82;;;24.00;99.90;;;;;;5083989;27;20049;-76
2023/08/03 11:59:46;;;;;;;4.15;1.40;;;23.60;99.90;;;;;;5101353;27;20059;-76
2023/08/03 12:02:12;;;;;;;5.10;1.23;;;23.30;99.90;;;;;;5084469;28;20043;-76
2023/08/03 12:04:41;;;;;;;6.28;1.25;;;23.00;99.90;;;;;;5129891;27;20043;-75
2023/08/03 12:07:13;;;;;;;;;;;23.00;99.90;;;;;;5099817;27;20070;-75
2023/08/03 12:09:40;;;;;;;5.90;0.90;;;23.00;99.90;;;;;;5085757;27;19931;-75
2023/08/03 12:12:11;;;;;;;3.92;1.00;;;23.00;99.90;;;;;;5084222;27;20126;-75
2023/08/03 12:14:40;;;;;;;4.05;1.00;;;23.00;99.90;;;;;;5103005;27;20047;-75
2023/08/03 12:17:14;;;;;;;6.13;1.20;;;22.90;99.90;;;;;;5098004;27;20062;-75
2023/08/03 12:19:39;;;;;;;6.25;1.35;;;22.80;99.90;;;;;;5135652;27;20064;-75
2023/08/03 12:22:06;;;;;;;4.75;1.45;;;22.70;99.90;;;;;;5096795;27;20112;-75
2023/08/03 12:24:31;;;;;;;5.95;1.63;;;22.60;99.90;;;;;;5091737;28;20100;-75
2023/08/03 12:26:57;;;;;;;4.90;1.40;;;22.50;99.90;;;;;;5095213;27;20263;-75
2023/08/03 12:29:23;;;;;;;4.20;1.38;;;22.50;99.90;;;;;;5102362;27;20053;-75
2023/08/03 12:31:50;;;;;;;3.95;1.25;;;22.40;99.90;;;;;;5129621;27;20078;-75
2023/08/03 12:34:16;;;;;;;4.28;1.13;;;22.30;99.90;;;;;;5085221;28;20520;-75
2023/08/03 12:36:41;;;;;;;5.38;1.10;;;22.20;99.90;;;;;;5099755;27;20031;-75
2023/08/03 12:39:08;;;;;;;2.90;0.70;;;22.20;99.90;;;;;;5119242;27;20484;-75
2023/08/03 12:41:34;;;;;;;2.13;0.70;;;22.20;99.90;;;;;;5136384;27;20047;-76
2023/08/03 12:43:59;;;;;;;2.55;0.82;;;22.30;99.90;;;;;;5098017;28;20063;-76
2023/08/03 12:46:25;;;;;;;2.95;0.90;;;22.30;99.90;;;;;;5094857;28;21048;-75